Palisade, NE (69040)

12:09 AM CDT on August 30, 2015 (GMT -0500)
Palisade | | Change Station
CLOSE
Current Station
Personal Weather Station
Location: Palisade, NE
Elevation: 2768 ft
Nearby Weather Stations

Elev 2768 ft 40.35 °N, 101.11 °W | Updated 0 second ago

Clear
Clear
62.6 °F
Feels Like 62.6 °F
N
0.0
Wind Variable Wind from South
Gusts 0.0 mph

Today
High -- | Low -- °F
--% Chance of Precip.
Yesterday
High -- | Low -- °F
Precip. -- in
7:09 AM 8:19 PM
Full, 100% visible
Pressure 29.99 in
Visibility 10.0 miles
Clouds Clear
Dew Point 56 °F
Humidity 78%
Rainfall 3.24 in
Snow Depth Not available.
UV 0 out of 12
Pollen 9.90 out of 12
Air Quality Not available.
Flu Activity Not available.
METAR KMCK 300453Z AUTO 19009KT 10SM CLR 19/12 A3006 RMK AO2 SLP156 T01940117
Pressure 29.99 in
Visibility 10.0 miles
Clouds Clear
Dew Point 56 °F
Humidity 78%
Rainfall 3.24 in
Snow Depth Not available.
UV 0 out of 12
Pollen 9.90 out of 12
Air Quality Not available.
Flu Activity Not available.
METAR KMCK 300453Z AUTO 19009KT 10SM CLR 19/12 A3006 RMK AO2 SLP156 T01940117

10-Day Weather Forecast

×

Almanac

Astronomy

Aug. 30, 2015 Rise Set
Actual Time
Civil Twilight
Nautical Twilight
Astronomical Twilight
Moon
Length of Visible Light
Length of Day
Tomorrow will be .
, % of the Moon is Illuminated

Today's Extremes

State Highs State Lows

Community

WunderPhotos

Upload Photos

1,850,888 photos uploaded!

WunderBlogs® & News

Nearby

Air Quality

  Air Quality AQ Index Pollutant
Not available.

Snow Depth

Station Depth Elevation

Earthquake Activity

City Distance Mag. Time & Date
Minimum magnitude displayed is 2.5.

Coastal Water Temperatures

Place Temperature

Stations

Nearby Weather Stations

Station Location Temp. Windchill Dew Point Humidity Wind Precip. Elev Updated Type